Time;durP1;ratioP1;P1;durP2;ratioP2;P2;SDS_P1;SDS_P2;PMS_P1;PMS_P2;Temp;Humidity;BMP_temperature;BMP_pressure;BME280_temperature;BME280_humidity;BME280_pressure;Samples;Min_cycle;Max_cycle;Signal;HPM_P1;HPM_P2
2024/02/22 00:01:36;;;;;;;23.60;15.40;;;;;;;3.93;86.15;100455.67;108854;1256;74404;-66
2024/02/22 00:04:03;;;;;;;55.30;26.90;;;;;;;3.98;86.41;100460.08;108893;1255;67180;-65
2024/02/22 00:06:30;;;;;;;29.20;18.60;;;;;;;4.09;86.54;100459.85;108713;1256;139575;-62
2024/02/22 00:08:57;;;;;;;81.70;37.50;;;;;;;4.20;86.89;100457.42;108848;1256;59333;-62
2024/02/22 00:11:23;;;;;;;135.30;58.10;;;;;;;4.36;87.24;100455.72;108768;1256;139036;-65
2024/02/22 00:13:50;;;;;;;165.30;70.00;;;;;;;4.54;87.53;100447.99;108793;1256;73847;-65
2024/02/22 00:16:17;;;;;;;125.00;56.80;;;;;;;4.71;87.87;100444.95;108495;1255;66798;-66
2024/02/22 00:18:44;;;;;;;166.80;71.20;;;;;;;4.90;88.04;100442.96;107410;1257;138924;-63
2024/02/22 00:21:13;;;;;;;99.30;46.70;;;;;;;5.07;88.25;100440.73;104564;1257;61392;-62
2024/02/22 00:23:40;;;;;;;134.40;57.70;;;;;;;5.25;88.33;100443.22;104653;1258;138978;-66
2024/02/22 00:26:07;;;;;;;166.20;72.00;;;;;;;5.40;88.41;100437.39;104491;1263;75382;-66
2024/02/22 00:28:33;;;;;;;127.70;56.60;;;;;;;5.53;88.38;100434.98;104759;1258;66910;-63
2024/02/22 00:31:00;;;;;;;130.50;62.10;;;;;;;5.65;88.32;100434.57;104527;1257;139340;-63
2024/02/22 00:33:27;;;;;;;123.00;55.10;;;;;;;5.75;88.30;100430.63;104652;1260;61376;-67
2024/02/22 00:35:54;;;;;;;108.70;48.00;;;;;;;5.85;88.24;100426.80;104769;1258;139592;-66
2024/02/22 00:38:20;;;;;;;88.20;40.50;;;;;;;5.93;88.26;100425.90;104747;1258;74471;-67
2024/02/22 00:40:48;;;;;;;85.70;40.40;;;;;;;5.99;88.10;100426.70;104785;1257;66299;-65
2024/02/22 00:43:14;;;;;;;50.40;31.40;;;;;;;6.06;88.01;100420.14;104647;1260;73368;-65
2024/02/22 00:45:41;;;;;;;66.30;35.90;;;;;;;6.13;88.03;100417.79;104832;1257;61469;-65
2024/02/22 00:48:08;;;;;;;37.90;25.30;;;;;;;6.18;87.98;100414.71;104767;1257;138891;-66
2024/02/22 00:50:35;;;;;;;33.20;22.70;;;;;;;6.22;87.80;100409.59;104718;1256;75261;-65
2024/02/22 00:53:02;;;;;;;27.30;18.60;;;;;;;6.24;87.67;100404.10;104672;1260;139770;-65
2024/02/22 00:55:29;;;;;;;24.90;18.60;;;;;;;6.26;87.63;100401.20;108841;1257;73569;-67
2024/02/22 00:57:56;;;;;;;24.00;15.90;;;;;;;6.28;87.59;100397.09;108964;1255;59616;-63
2024/02/22 01:00:22;;;;;;;24.40;14.10;;;;;;;6.29;87.42;100397.33;108866;1255;138872;-63
2024/02/22 01:02:49;;;;;;;21.30;14.90;;;;;;;6.31;87.37;100392.84;107948;1258;73654;-62
2024/02/22 01:05:17;;;;;;;29.40;14.90;;;;;;;6.33;87.38;100387.70;104847;1258;139229;-62
2024/02/22 01:07:44;;;;;;;25.30;14.90;;;;;;;6.36;87.32;100386.95;104761;1257;71606;-62
2024/02/22 01:10:11;;;;;;;23.20;15.60;;;;;;;6.40;87.32;100382.72;104662;1255;61309;-63
2024/02/22 01:12:37;;;;;;;22.10;15.90;;;;;;;6.41;87.22;100384.33;104610;1259;139218;-63
2024/02/22 01:15:06;;;;;;;23.10;16.60;;;;;;;6.42;87.20;100381.41;104951;1260;73529;-66
2024/02/22 01:17:33;;;;;;;26.90;17.00;;;;;;;6.45;87.25;100374.52;108840;1255;138660;-66
2024/02/22 01:20:00;;;;;;;25.20;16.00;;;;;;;6.45;87.20;100370.87;106687;1259;72570;-67
2024/02/22 01:22:27;;;;;;;21.70;16.30;;;;;;;6.46;87.13;100365.85;104700;1261;61259;-65
2024/02/22 01:24:54;;;;;;;22.10;16.00;;;;;;;6.46;87.12;100362.52;104554;1261;139240;-63
2024/02/22 01:27:20;;;;;;;26.20;17.80;;;;;;;6.48;87.13;100358.08;104959;1256;73889;-63
2024/02/22 01:29:47;;;;;;;25.00;17.50;;;;;;;6.50;87.16;100354.84;104803;1258;138888;-62
2024/02/22 01:32:14;;;;;;;27.20;18.30;;;;;;;6.52;87.12;100352.62;104760;1258;73100;-62
2024/02/22 01:34:41;;;;;;;26.20;18.60;;;;;;;6.52;87.07;100348.29;104901;1261;61929;-62
2024/02/22 01:37:08;;;;;;;30.40;21.10;;;;;;;6.54;87.13;100345.75;108682;1258;138840;-63
2024/02/22 01:39:34;;;;;;;26.90;18.70;;;;;;;6.56;87.06;100341.09;108959;1256;72877;-62
2024/02/22 01:42:01;;;;;;;27.80;18.10;;;;;;;6.58;87.07;100340.13;105536;1260;140366;-62
2024/02/22 01:44:29;;;;;;;24.30;16.20;;;;;;;6.62;87.15;100336.41;104720;1259;73666;-66
2024/02/22 01:46:56;;;;;;;21.60;16.20;;;;;;;6.63;86.95;100328.09;104616;1259;138854;-65
2024/02/22 01:49:25;;;;;;;24.50;16.90;;;;;;;6.62;86.91;100327.71;108699;1258;60304;-66
2024/02/22 01:51:57;;;;;;;34.10;22.90;;;;;;;6.64;86.80;100322.88;104675;1261;75847;-66
2024/02/22 01:54:24;;;;;;;29.20;19.80;;;;;;;6.66;86.88;100319.66;108730;1257;139299;-65
2024/02/22 01:56:51;;;;;;;23.50;16.90;;;;;;;6.69;86.94;100315.05;108917;1255;72492;-66
2024/02/22 01:59:18;;;;;;;29.90;17.90;;;;;;;6.72;86.85;100313.39;108828;1257;139198;-66
2024/02/22 02:01:45;;;;;;;26.70;17.60;;;;;;;6.73;86.81;100313.09;108914;1260;61216;-67
2024/02/22 02:04:15;;;;;;;25.70;16.00;;;;;;;6.74;86.68;100312.05;106211;1258;75691;-62
2024/02/22 02:06:43;;;;;;;24.00;17.40;;;;;;;6.75;86.67;100312.27;104696;1260;138625;-62
2024/02/22 02:09:11;;;;;;;22.10;16.00;;;;;;;6.75;86.68;100309.84;104841;1261;72168;-63
2024/02/22 02:11:38;;;;;;;21.70;15.30;;;;;;;6.75;86.60;100304.06;104666;1258;138676;-62
2024/02/22 02:14:05;;;;;;;25.00;15.50;;;;;;;6.72;86.51;100301.89;104806;1255;61356;-63
2024/02/22 02:16:32;;;;;;;19.00;15.10;;;;;;;6.69;86.53;100293.21;104804;1256;75302;-63
2024/02/22 02:18:59;;;;;;;24.70;15.70;;;;;;;6.64;86.41;100291.33;104595;1258;139751;-63
2024/02/22 02:21:32;;;;;;;25.30;15.70;;;;;;;6.61;86.60;100285.64;108954;1256;72483;-62
2024/02/22 02:23:59;;;;;;;24.50;13.90;;;;;;;6.57;86.49;100281.87;108808;1257;138734;-63
2024/02/22 02:26:25;;;;;;;19.70;12.50;;;;;;;6.54;86.54;100276.88;108959;1255;62047;-63
2024/02/22 02:28:52;;;;;;;19.70;13.10;;;;;;;6.53;86.62;100274.92;108807;1256;139184;-63
2024/02/22 02:31:19;;;;;;;20.00;12.90;;;;;;;6.51;86.57;100277.30;108987;1255;65584;-63
2024/02/22 02:33:46;;;;;;;21.50;14.40;;;;;;;6.50;86.61;100270.64;108956;1255;74013;-63
2024/02/22 02:36:12;;;;;;;24.30;15.30;;;;;;;6.49;86.66;100267.81;108841;1256;138753;-62
2024/02/22 02:38:39;;;;;;;21.90;14.00;;;;;;;6.48;86.69;100260.98;108821;1258;59165;-63
2024/02/22 02:41:05;;;;;;;21.10;13.20;;;;;;;6.49;86.60;100255.95;108826;1255;139030;-62
2024/02/22 02:43:32;;;;;;;23.40;13.80;;;;;;;6.49;86.67;100253.34;108986;1257;65112;-63
2024/02/22 02:45:59;;;;;;;27.00;13.30;;;;;;;6.49;86.62;100248.98;108947;1256;72485;-63
2024/02/22 02:48:25;;;;;;;24.80;13.40;;;;;;;6.46;86.55;100244.54;108850;1256;139553;-63
2024/02/22 02:50:53;;;;;;;18.90;12.80;;;;;;;6.44;86.56;100237.85;107276;1257;61366;-62
2024/02/22 02:53:22;;;;;;;23.30;13.00;;;;;;;6.42;86.57;100230.48;108837;1257;138912;-63
2024/02/22 02:55:48;;;;;;;16.90;12.20;;;;;;;6.41;86.51;100226.08;108948;1255;66685;-63
2024/02/22 02:58:15;;;;;;;23.60;13.30;;;;;;;6.39;86.54;100222.17;108925;1257;71654;-63
2024/02/22 03:00:42;;;;;;;20.30;12.90;;;;;;;6.36;86.35;100218.59;108844;1257;138434;-63
2024/02/22 03:03:08;;;;;;;19.00;13.10;;;;;;;6.30;86.41;100212.10;108992;1255;61080;-62
2024/02/22 03:05:38;;;;;;;23.10;13.10;;;;;;;6.23;86.27;100207.90;108832;1257;138737;-62
2024/02/22 03:08:05;;;;;;;19.60;11.90;;;;;;;6.15;86.07;100207.27;108914;1257;66751;-62
2024/02/22 03:10:32;;;;;;;20.90;11.60;;;;;;;6.07;86.14;100207.50;108006;1258;71112;-62
2024/02/22 03:13:02;;;;;;;22.70;12.60;;;;;;;5.99;86.13;100202.89;104685;1257;138583;-62
2024/02/22 03:15:29;;;;;;;21.40;12.70;;;;;;;5.92;86.24;100195.29;109028;1256;59078;-63
2024/02/22 03:17:56;;;;;;;21.10;12.30;;;;;;;5.86;86.19;100192.29;108870;1257;139053;-63
2024/02/22 03:20:22;;;;;;;24.30;13.60;;;;;;;5.78;86.18;100188.70;108979;1255;64098;-63
2024/02/22 03:22:49;;;;;;;21.60;12.80;;;;;;;5.69;86.16;100189.42;108854;1257;139349;-63
2024/02/22 03:25:16;;;;;;;22.40;13.10;;;;;;;5.60;86.14;100188.41;108938;1257;62401;-63
2024/02/22 03:27:44;;;;;;;23.30;13.70;;;;;;;5.51;86.16;100188.46;108941;1258;60469;-63
2024/02/22 03:30:12;;;;;;;25.10;13.00;;;;;;;5.42;86.09;100184.47;108860;1255;139682;-63
2024/02/22 03:32:39;;;;;;;20.70;13.10;;;;;;;5.34;86.10;100174.05;108965;1258;65297;-63
2024/02/22 03:35:05;;;;;;;20.20;11.80;;;;;;;5.26;86.22;100170.12;108821;1255;139002;-63
2024/02/22 03:37:33;;;;;;;20.20;13.30;;;;;;;5.18;86.17;100167.56;109004;1255;60809;-64
2024/02/22 03:40:00;;;;;;;24.70;12.90;;;;;;;5.11;86.15;100166.59;108900;1258;60713;-63
2024/02/22 03:42:28;;;;;;;23.50;14.00;;;;;;;5.03;86.18;100163.55;108886;1256;139192;-63
2024/02/22 03:44:55;;;;;;;19.40;12.70;;;;;;;4.96;86.30;100157.37;105645;1258;66365;-63
2024/02/22 03:47:21;;;;;;;24.80;15.20;;;;;;;4.89;86.24;100154.49;104789;1259;138769;-63
2024/02/22 03:49:48;;;;;;;24.20;13.40;;;;;;;4.81;86.24;100150.19;104866;1256;61224;-62
2024/02/22 03:52:15;;;;;;;25.30;13.90;;;;;;;4.74;86.37;100142.78;104869;1256;61370;-63
2024/02/22 03:54:41;;;;;;;27.80;14.60;;;;;;;4.66;86.43;100141.95;104695;1258;138852;-62
2024/02/22 03:57:08;;;;;;;29.70;15.50;;;;;;;4.59;86.61;100139.27;104806;1260;66742;-63
2024/02/22 03:59:35;;;;;;;33.10;16.50;;;;;;;4.54;86.65;100135.55;108793;1255;139299;-63
2024/02/22 04:02:03;;;;;;;27.40;16.40;;;;;;;4.48;86.74;100127.54;108964;1255;59643;-62
2024/02/22 04:04:30;;;;;;;24.20;15.50;;;;;;;4.44;86.85;100120.60;108988;1255;60335;-63
2024/02/22 04:06:58;;;;;;;27.10;16.60;;;;;;;4.41;86.94;100117.35;108733;1258;139348;-63
2024/02/22 04:09:25;;;;;;;22.60;15.30;;;;;;;4.39;87.09;100115.54;108892;1257;66514;-62
2024/02/22 04:11:51;;;;;;;25.10;16.40;;;;;;;4.38;87.21;100109.75;108680;1257;138593;-62
2024/02/22 04:14:18;;;;;;;26.90;15.30;;;;;;;4.35;87.11;100104.43;104857;1259;61408;-61
2024/02/22 04:16:45;;;;;;;27.30;17.40;;;;;;;4.34;87.28;100105.08;104580;1258;61400;-61
2024/02/22 04:19:11;;;;;;;31.30;17.40;;;;;;;4.32;87.32;100100.66;108664;1257;138652;-62
2024/02/22 04:21:41;;;;;;;27.30;16.40;;;;;;;4.31;87.33;100095.77;107790;1255;64902;-61
2024/02/22 04:24:08;;;;;;;24.30;16.40;;;;;;;4.30;87.45;100094.68;108804;1257;138849;-62
2024/02/22 04:26:46;;;;;;;30.70;18.30;;;;;;;4.31;87.46;100096.27;108826;1260;59730;-64
2024/02/22 04:29:13;;;;;;;26.10;16.40;;;;;;;4.29;87.52;100096.75;108707;1257;138620;-65
2024/02/22 04:31:39;;;;;;;33.70;17.30;;;;;;;4.27;87.36;100095.10;108851;1257;74622;-64
2024/02/22 04:34:06;;;;;;;27.60;17.40;;;;;;;4.28;87.55;100092.71;108833;1257;66125;-62
2024/02/22 04:36:33;;;;;;;28.50;16.50;;;;;;;4.28;87.53;100091.14;108751;1258;139590;-62
2024/02/22 04:38:59;;;;;;;30.40;17.30;;;;;;;4.27;87.51;100089.37;108775;1257;60021;-62
2024/02/22 04:41:26;;;;;;;32.00;17.50;;;;;;;4.27;87.50;100087.11;108749;1256;139485;-63
2024/02/22 04:43:53;;;;;;;30.10;17.70;;;;;;;4.26;87.48;100079.59;108954;1256;75057;-62
2024/02/22 04:46:19;;;;;;;27.90;16.80;;;;;;;4.23;87.49;100076.55;108947;1256;65809;-62
2024/02/22 04:48:46;;;;;;;31.30;17.00;;;;;;;4.22;87.48;100073.38;108727;1257;139349;-63
2024/02/22 04:51:13;;;;;;;27.40;17.60;;;;;;;4.21;87.48;100069.34;108941;1257;58890;-64
2024/02/22 04:53:40;;;;;;;21.90;15.90;;;;;;;4.21;87.40;100066.71;108772;1258;138513;-68
2024/02/22 04:56:06;;;;;;;26.20;17.00;;;;;;;4.20;87.53;100061.48;108876;1257;74647;-62
2024/02/22 04:58:36;;;;;;;26.50;17.10;;;;;;;4.20;87.46;100059.92;108825;1257;66812;-63
2024/02/22 05:01:02;;;;;;;29.80;17.00;;;;;;;4.18;87.43;100061.40;108779;1257;138717;-63
2024/02/22 05:03:29;;;;;;;27.30;17.70;;;;;;;4.18;87.49;100061.05;108893;1257;60643;-68
2024/02/22 05:05:56;;;;;;;31.90;18.20;;;;;;;4.17;87.45;100058.22;108651;1257;138513;-69
2024/02/22 05:08:23;;;;;;;29.30;18.30;;;;;;;4.15;87.51;100059.20;108831;1257;74399;-66
2024/02/22 05:10:50;;;;;;;31.30;19.90;;;;;;;4.15;87.53;100059.34;106915;1261;138929;-65
2024/02/22 05:13:18;;;;;;;42.10;23.50;;;;;;;4.13;87.52;100050.23;108832;1257;73696;-67
2024/02/22 05:15:46;;;;;;;36.90;20.60;;;;;;;4.12;87.61;100048.98;108801;1258;60082;-66
2024/02/22 05:18:12;;;;;;;32.10;19.10;;;;;;;4.11;87.71;100046.18;108751;1255;138879;-66
2024/02/22 05:20:39;;;;;;;33.00;21.70;;;;;;;4.09;87.66;100047.52;108992;1257;74223;-63
2024/02/22 05:23:06;;;;;;;33.10;22.50;;;;;;;4.09;87.70;100044.91;108857;1256;139205;-63
2024/02/22 05:25:33;;;;;;;38.30;22.10;;;;;;;4.09;87.89;100042.45;108928;1258;72754;-64
2024/02/22 05:28:00;;;;;;;37.30;22.30;;;;;;;4.09;88.00;100044.55;108290;1257;59006;-63
2024/02/22 05:30:27;;;;;;;40.30;23.10;;;;;;;4.11;88.06;100041.48;104547;1261;139017;-63
2024/02/22 05:32:55;;;;;;;37.30;22.10;;;;;;;4.11;88.10;100037.84;104678;1256;75319;-64
2024/02/22 05:35:22;;;;;;;34.40;20.80;;;;;;;4.11;88.19;100035.59;104681;1261;138757;-64
2024/02/22 05:37:49;;;;;;;35.60;21.10;;;;;;;4.12;88.37;100031.63;104747;1259;72258;-65
2024/02/22 05:40:16;;;;;;;36.50;21.10;;;;;;;4.12;88.39;100024.88;104622;1259;61300;-64
2024/02/22 05:42:43;;;;;;;36.70;22.70;;;;;;;4.14;88.65;100025.46;104719;1258;138698;-63
2024/02/22 05:45:10;;;;;;;33.50;21.90;;;;;;;4.14;88.61;100025.48;104655;1258;74862;-63
2024/02/22 05:47:37;;;;;;;39.90;24.70;;;;;;;4.15;88.74;100028.98;104543;1261;138807;-65
2024/02/22 05:50:04;;;;;;;37.10;22.80;;;;;;;4.16;88.84;100025.70;104692;1258;71838;-65
2024/02/22 05:52:31;;;;;;;34.00;22.90;;;;;;;4.18;89.05;100018.66;104743;1261;61406;-64
2024/02/22 05:54:57;;;;;;;35.10;23.90;;;;;;;4.21;89.13;100009.23;104690;1260;139520;-66
2024/02/22 05:57:24;;;;;;;40.60;26.60;;;;;;;4.22;89.17;100003.92;104779;1260;75615;-66
2024/02/22 05:59:51;;;;;;;47.60;28.30;;;;;;;4.24;89.21;100006.95;104553;1261;139091;-66
2024/02/22 06:02:17;;;;;;;46.60;29.40;;;;;;;4.27;89.27;100003.05;104703;1259;72956;-66
2024/02/22 06:04:44;;;;;;;62.30;32.80;;;;;;;4.31;89.47;99999.55;104679;1259;61220;-64
2024/02/22 06:07:11;;;;;;;53.70;33.40;;;;;;;4.34;89.41;99991.85;104654;1256;138342;-64
2024/02/22 06:09:38;;;;;;;49.70;31.00;;;;;;;4.38;89.48;99991.98;104847;1256;75138;-65
2024/02/22 06:12:08;;;;;;;62.60;32.70;;;;;;;4.42;89.53;99993.16;104587;1258;139092;-65
2024/02/22 06:14:35;;;;;;;52.60;31.40;;;;;;;4.44;89.51;99990.48;108879;1257;73216;-67
2024/02/22 06:17:02;;;;;;;53.40;31.40;;;;;;;4.48;89.54;99987.84;105150;1256;138922;-69
2024/02/22 06:19:28;;;;;;;44.40;27.40;;;;;;;4.53;89.56;99983.70;104619;1256;65982;-69
2024/02/22 06:21:55;;;;;;;43.50;27.60;;;;;;;4.58;89.69;99981.09;104695;1260;74312;-67
2024/02/22 06:24:24;;;;;;;46.00;27.70;;;;;;;4.62;89.57;99977.60;104466;1262;138791;-67
2024/02/22 06:26:50;;;;;;;45.50;28.00;;;;;;;4.66;89.57;99977.91;105168;1261;71886;-66
2024/02/22 06:29:17;;;;;;;40.90;27.30;;;;;;;4.74;89.69;99977.66;104444;1261;138817;-65
2024/02/22 06:31:44;;;;;;;45.20;26.80;;;;;;;4.84;89.94;99979.08;104888;1259;61462;-68
2024/02/22 06:34:11;;;;;;;42.20;25.70;;;;;;;4.95;89.97;99975.97;104837;1259;75204;-66
2024/02/22 06:36:38;;;;;;;41.50;25.10;;;;;;;5.08;90.06;99975.93;104753;1258;138579;-66
2024/02/22 06:39:05;;;;;;;47.70;27.10;;;;;;;5.21;90.18;99976.89;104984;1261;73136;-63
2024/02/22 06:41:32;;;;;;;43.00;27.70;;;;;;;5.32;90.03;99969.77;108862;1255;140601;-61
2024/02/22 06:44:00;;;;;;;43.40;26.30;;;;;;;5.44;90.12;99963.52;108932;1257;59241;-62
2024/02/22 06:46:27;;;;;;;43.70;27.80;;;;;;;5.54;89.73;99967.18;108817;1257;73401;-62
2024/02/22 06:48:54;;;;;;;40.50;25.60;;;;;;;5.64;89.71;99968.02;108746;1258;139276;-62
2024/02/22 06:51:21;;;;;;;42.10;25.70;;;;;;;5.74;89.71;99966.27;108909;1257;72645;-62
2024/02/22 06:53:49;;;;;;;43.60;25.20;;;;;;;5.84;89.67;99963.25;108843;1255;138405;-62
2024/02/22 06:56:16;;;;;;;36.10;24.70;;;;;;;5.92;89.24;99963.14;108903;1255;60209;-64
2024/02/22 06:58:43;;;;;;;40.40;24.20;;;;;;;5.98;89.11;99953.98;108974;1257;73405;-64
2024/02/22 07:01:09;;;;;;;43.00;26.20;;;;;;;6.03;88.91;99953.79;108929;1255;138545;-64
2024/02/22 07:03:36;;;;;;;43.00;26.50;;;;;;;6.08;88.81;99946.27;109030;1255;73460;-63
2024/02/22 07:06:03;;;;;;;40.00;27.00;;;;;;;6.14;88.62;99948.89;108779;1255;138944;-63
2024/02/22 07:08:30;;;;;;;42.00;26.60;;;;;;;6.21;88.62;99942.66;109015;1255;58960;-63
2024/02/22 07:10:57;;;;;;;40.80;25.80;;;;;;;6.32;88.62;99937.57;108891;1258;138965;-63
2024/02/22 07:13:24;;;;;;;45.10;26.50;;;;;;;6.46;88.62;99935.18;105145;1260;67328;-62
2024/02/22 07:15:50;;;;;;;40.90;25.90;;;;;;;6.55;88.33;99929.67;104978;1258;72971;-63
2024/02/22 07:18:17;;;;;;;44.10;27.20;;;;;;;6.63;88.18;99930.79;104701;1259;139169;-63
2024/02/22 07:20:44;;;;;;;40.40;27.60;;;;;;;6.69;87.95;99928.48;104925;1261;61697;-63
2024/02/22 07:23:11;;;;;;;41.70;27.30;;;;;;;6.73;87.96;99925.83;104814;1256;139426;-64
2024/02/22 07:25:39;;;;;;;37.50;26.00;;;;;;;6.79;87.92;99922.14;104778;1261;66711;-65
2024/02/22 07:28:10;;;;;;;41.80;28.20;;;;;;;6.83;87.54;99921.35;108997;1257;73656;-63
2024/02/22 07:30:37;;;;;;;41.30;27.50;;;;;;;6.84;87.45;99925.95;106304;1256;139236;-63
2024/02/22 07:33:04;;;;;;;43.90;27.00;;;;;;;6.89;87.35;99922.74;108989;1256;59434;-63
2024/02/22 07:35:31;;;;;;;42.70;27.70;;;;;;;6.94;87.23;99918.86;108803;1256;138806;-63
2024/02/22 07:37:58;;;;;;;41.20;27.70;;;;;;;6.96;87.04;99919.45;109011;1257;66386;-63
2024/02/22 07:40:25;;;;;;;38.90;25.70;;;;;;;6.97;86.87;99918.43;108654;1256;72718;-63
2024/02/22 07:42:52;;;;;;;43.70;26.80;;;;;;;7.01;86.83;99917.82;108853;1256;138459;-63
2024/02/22 07:45:18;;;;;;;39.50;27.00;;;;;;;7.07;86.80;99920.42;109011;1256;59159;-63
2024/02/22 07:47:45;;;;;;;39.70;25.60;;;;;;;7.13;86.71;99915.34;108931;1255;138456;-63
2024/02/22 07:50:12;;;;;;;40.10;27.70;;;;;;;7.17;86.58;99908.64;108985;1258;65051;-63
2024/02/22 07:52:40;;;;;;;38.30;26.20;;;;;;;7.24;86.53;99903.05;105126;1261;72728;-63
2024/02/22 07:55:07;;;;;;;35.70;24.70;;;;;;;7.33;86.61;99897.52;104718;1262;138982;-63
2024/02/22 07:57:34;;;;;;;39.40;26.20;;;;;;;7.42;86.51;99882.73;109034;1256;60924;-63
2024/02/22 08:00:02;;;;;;;41.10;27.20;;;;;;;7.50;86.32;99874.17;108918;1257;138677;-63
2024/02/22 08:02:28;;;;;;;45.60;29.10;;;;;;;7.59;86.39;99872.64;109035;1256;67437;-63
2024/02/22 08:04:55;;;;;;;44.10;27.90;;;;;;;7.69;86.33;99866.41;108914;1257;138376;-64
2024/02/22 08:07:22;;;;;;;40.50;28.30;;;;;;;7.83;86.38;99863.41;109060;1258;59155;-63
2024/02/22 08:09:49;;;;;;;44.20;28.70;;;;;;;7.97;86.25;99856.88;108282;1257;61794;-64
2024/02/22 08:12:16;;;;;;;43.40;27.20;;;;;;;8.04;85.80;99857.21;104789;1260;138849;-63
2024/02/22 08:14:42;;;;;;;43.40;28.30;;;;;;;8.05;85.53;99855.65;104759;1261;66908;-65
2024/02/22 08:17:10;;;;;;;47.10;28.20;;;;;;;8.08;85.39;99849.23;104603;1258;139755;-64
2024/02/22 08:19:38;;;;;;;45.40;28.50;;;;;;;8.12;85.29;99850.55;108959;1259;58962;-64
2024/02/22 08:22:04;;;;;;;40.10;26.90;;;;;;;8.19;85.33;99848.95;109033;1258;61386;-62
2024/02/22 08:24:31;;;;;;;41.40;26.40;;;;;;;8.25;85.09;99848.73;108912;1257;138381;-63
2024/02/22 08:26:58;;;;;;;40.30;24.70;;;;;;;8.31;84.96;99847.10;109001;1256;65975;-63
2024/02/22 08:29:25;;;;;;;40.90;28.00;;;;;;;8.38;84.75;99846.35;108878;1257;139867;-63
2024/02/22 08:31:52;;;;;;;38.70;28.30;;;;;;;8.46;84.82;99849.33;108969;1259;58888;-63
2024/02/22 08:34:19;;;;;;;36.90;23.60;;;;;;;8.53;84.57;99844.05;109007;1259;59409;-63
2024/02/22 08:36:46;;;;;;;36.30;23.90;;;;;;;8.55;84.27;99848.63;108893;1257;137972;-63
2024/02/22 08:39:14;;;;;;;38.80;25.50;;;;;;;8.56;84.14;99842.17;109001;1255;67313;-63
2024/02/22 08:41:40;;;;;;;39.10;24.70;;;;;;;8.60;83.98;99838.39;108913;1256;138333;-63
2024/02/22 08:44:07;;;;;;;41.50;23.40;;;;;;;8.64;84.01;99831.13;108964;1260;59643;-63
2024/02/22 08:46:34;;;;;;;35.70;23.40;;;;;;;8.69;83.79;99822.83;108982;1259;59047;-62
2024/02/22 08:49:01;;;;;;;35.40;22.40;;;;;;;8.73;83.67;99820.45;108941;1256;138675;-64
2024/02/22 08:51:28;;;;;;;37.20;22.70;;;;;;;8.75;83.35;99819.96;108974;1257;66032;-63
2024/02/22 08:53:55;;;;;;;35.40;21.80;;;;;;;8.81;83.39;99821.80;108911;1256;138670;-63
2024/02/22 08:56:22;;;;;;;33.00;21.10;;;;;;;8.93;83.39;99818.33;108083;1260;59423;-63
2024/02/22 08:58:49;;;;;;;32.40;21.20;;;;;;;9.06;83.26;99807.52;108863;1257;138812;-64
2024/02/22 09:01:19;;;;;;;33.80;21.40;;;;;;;9.13;82.89;99800.63;109056;1256;73386;-63
2024/02/22 09:03:46;;;;;;;34.00;20.80;;;;;;;9.19;82.81;99799.84;108991;1255;66010;-63
2024/02/22 09:06:13;;;;;;;44.40;22.70;;;;;;;9.23;82.44;99795.88;106708;1261;138041;-63
2024/02/22 09:08:41;;;;;;;31.50;21.20;;;;;;;9.23;82.20;99793.95;104813;1256;61363;-64
2024/02/22 09:11:08;;;;;;;32.20;21.40;;;;;;;9.23;82.15;99780.65;108842;1259;137949;-63
2024/02/22 09:13:35;;;;;;;36.00;21.20;;;;;;;9.28;82.18;99764.27;108992;1257;73101;-63
2024/02/22 09:16:03;;;;;;;30.90;20.80;;;;;;;9.38;82.11;99762.66;108883;1257;66263;-63
2024/02/22 09:18:30;;;;;;;33.80;20.60;;;;;;;9.43;81.94;99758.87;108852;1257;139141;-63
2024/02/22 09:20:56;;;;;;;31.60;20.20;;;;;;;9.52;81.89;99752.52;108976;1260;59612;-63
2024/02/22 09:23:23;;;;;;;29.00;19.70;;;;;;;9.62;81.77;99747.55;108787;1258;138951;-63
2024/02/22 09:25:52;;;;;;;32.70;21.20;;;;;;;9.74;81.73;99745.09;108988;1256;75668;-64
2024/02/22 09:28:19;;;;;;;29.70;21.10;;;;;;;9.90;81.73;99743.52;105339;1261;64995;-63
2024/02/22 09:30:46;;;;;;;33.80;21.30;;;;;;;10.05;81.59;99735.98;104673;1258;138112;-63
2024/02/22 09:33:13;;;;;;;33.00;20.20;;;;;;;10.18;81.39;99729.45;104864;1261;61902;-65
2024/02/22 09:35:41;;;;;;;46.40;31.30;;;;;;;10.24;81.14;99726.88;108818;1257;138176;-63
2024/02/22 09:38:08;;;;;;;32.90;21.00;;;;;;;10.34;81.01;99717.02;108984;1257;73920;-63
2024/02/22 09:40:35;;;;;;;32.10;20.50;;;;;;;10.39;80.59;99712.49;109055;1255;65860;-62
2024/02/22 09:43:03;;;;;;;30.10;19.60;;;;;;;10.45;80.51;99709.57;108904;1256;138111;-63
2024/02/22 09:45:30;;;;;;;31.10;19.90;;;;;;;10.53;80.34;99705.79;108876;1256;59675;-63
2024/02/22 09:47:59;;;;;;;30.70;20.60;;;;;;;10.62;80.14;99705.84;108875;1257;138935;-63
2024/02/22 09:50:26;;;;;;;28.60;19.10;;;;;;;10.71;79.93;99708.38;108920;1255;73802;-63
2024/02/22 09:52:54;;;;;;;29.90;19.20;;;;;;;10.81;79.70;99707.73;108903;1257;138804;-63
2024/02/22 09:55:21;;;;;;;29.90;20.40;;;;;;;10.90;79.47;99692.36;108851;1258;73361;-64
2024/02/22 09:57:49;;;;;;;29.70;20.20;;;;;;;10.95;79.19;99692.05;108992;1257;59659;-63
2024/02/22 10:00:17;;;;;;;32.60;19.50;;;;;;;11.00;79.04;99693.31;108886;1255;138855;-64
2024/02/22 10:02:45;;;;;;;27.80;20.10;;;;;;;11.05;78.82;99690.00;108939;1257;75569;-63
2024/02/22 10:05:12;;;;;;;32.00;20.00;;;;;;;11.05;78.34;99689.83;108850;1258;138537;-63
2024/02/22 10:07:39;;;;;;;30.50;20.50;;;;;;;11.02;78.21;99683.49;109035;1257;72787;-63
2024/02/22 10:10:07;;;;;;;31.70;19.70;;;;;;;10.98;78.05;99677.50;107619;1260;59895;-63
2024/02/22 10:12:35;;;;;;;33.10;20.30;;;;;;;10.94;77.87;99671.85;104723;1256;138020;-63
2024/02/22 10:15:11;;;;;;;34.10;19.00;;;;;;;10.90;77.88;99677.97;108878;1261;74962;-64
2024/02/22 10:17:38;;;;;;;30.90;18.80;;;;;;;10.86;77.77;99686.90;108906;1257;138031;-64
2024/02/22 10:20:09;;;;;;;29.40;18.60;;;;;;;10.85;77.87;99682.16;109005;1257;73037;-64
2024/02/22 10:22:39;;;;;;;30.90;18.40;;;;;;;10.86;77.71;99677.42;108999;1260;59296;-64
2024/02/22 10:25:14;;;;;;;29.30;19.50;;;;;;;10.82;77.56;99672.84;108881;1256;138025;-64
2024/02/22 10:27:46;;;;;;;31.50;19.60;;;;;;;10.76;77.45;99664.90;108949;1255;75526;-64
2024/02/22 10:30:13;;;;;;;28.00;19.60;;;;;;;10.70;77.38;99661.70;107728;1256;138476;-63
2024/02/22 10:32:41;;;;;;;30.70;18.90;;;;;;;10.73;77.61;99658.02;108970;1257;72441;-62
2024/02/22 10:35:10;;;;;;;32.00;18.80;;;;;;;10.82;77.77;99650.73;108881;1257;140581;-62
2024/02/22 10:37:37;;;;;;;31.90;17.80;;;;;;;10.93;77.73;99645.88;106027;1260;62294;-62
2024/02/22 10:40:05;;;;;;;28.80;18.90;;;;;;;11.03;77.64;99641.89;104648;1260;270486;-63
2024/02/22 10:42:32;;;;;;;27.40;17.60;;;;;;;11.12;77.61;99637.19;105005;1258;140164;-63
2024/02/22 10:44:59;;;;;;;31.80;18.30;;;;;;;11.24;77.39;99625.48;104878;1262;72944;-63
2024/02/22 10:47:27;;;;;;;28.30;16.40;;;;;;;11.37;77.35;99618.15;104663;1260;138655;-63
2024/02/22 10:49:57;;;;;;;28.20;17.50;;;;;;;11.51;77.22;99619.26;104780;1262;60120;-64
2024/02/22 10:52:24;;;;;;;23.70;15.30;;;;;;;11.63;76.99;99611.91;104749;1263;75786;-64
2024/02/22 10:54:57;;;;;;;28.00;16.90;;;;;;;11.75;76.72;99604.55;108853;1257;138210;-65
2024/02/22 10:57:26;;;;;;;31.70;16.10;;;;;;;11.88;76.42;99600.20;107372;1256;73808;-64
2024/02/22 10:59:54;;;;;;;24.50;16.80;;;;;;;11.97;76.11;99600.05;108778;1257;138309;-63
2024/02/22 11:02:21;;;;;;;25.60;15.90;;;;;;;12.08;75.90;99591.09;108873;1258;60190;-63
2024/02/22 11:04:48;;;;;;;27.00;16.10;;;;;;;12.19;75.68;99590.02;108896;1257;138584;-62
2024/02/22 11:07:20;;;;;;;25.90;15.50;;;;;;;12.30;75.44;99581.75;109029;1257;66189;-63
2024/02/22 11:09:49;;;;;;;21.60;14.80;;;;;;;12.39;75.20;99579.98;108888;1257;70595;-64